Terminal Aerodrome Forecast
Issued by NWS

Home | Current Version | Previous Version | Graphics & Text | Print | Product List | Glossary On
Versions: 1 2 3 4 5 6 7 8 9 10 11 12 13 14 15 16 17 18 19 20 21
000
FTUS43 KBIS 162300
TAFDIK
TAF
KDIK 162321Z 1700/1724 34011KT P6SM FEW130
     FM170200 VRB03KT P6SM SKC
     FM170800 25005KT P6SM SKC
     FM171400 28007KT P6SM SKC
     FM171800 35007KT P6SM SKC
     FM172100 04006KT P6SM SKC=

USA.gov is the U.S. government's official web portal to all federal, state and local government web resources and services.